Time;durP1;ratioP1;P1;durP2;ratioP2;P2;SDS_P1;SDS_P2;PMS_P1;PMS_P2;Temp;Humidity;BMP_temperature;BMP_pressure;BME280_temperature;BME280_humidity;BME280_pressure;Samples;Min_cycle;Max_cycle;Signal;HPM_P1;HPM_P2
2024/02/03 00:01:28;;;;;;;49.42;46.88;;;;;;;;;;5033283;28;20466;-60
2024/02/03 00:03:54;;;;;;;50.47;47.92;;;;;;;;;;5033939;28;20029;-59
2024/02/03 00:06:19;;;;;;;50.55;47.97;;;;;;;;;;5035009;28;20052;-60
2024/02/03 00:08:45;;;;;;;50.92;48.33;;;;;;;;;;5032347;28;20113;-60
2024/02/03 00:11:10;;;;;;;51.80;49.17;;;;;;;;;;5031930;28;20040;-60
2024/02/03 00:13:36;;;;;;;51.45;48.83;;;;;;;;;;5035239;28;20037;-60
2024/02/03 00:16:01;;;;;;;52.33;49.63;;;;;;;;;;5035572;28;20072;-60
2024/02/03 00:18:27;;;;;;;54.78;51.88;;;;;;;;;;5034732;28;20061;-60
2024/02/03 00:20:52;;;;;;;52.67;49.70;;;;;;;;;;5035531;28;20057;-59
2024/02/03 00:23:18;;;;;;;52.80;50.00;;;;;;;;;;5033075;28;20043;-60
2024/02/03 00:25:43;;;;;;;56.10;53.28;;;;;;;;;;5035097;28;20048;-60
2024/02/03 00:28:09;;;;;;;53.65;50.83;;;;;;;;;;5033139;28;20029;-60
2024/02/03 00:30:34;;;;;;;55.35;52.55;;;;;;;;;;5034527;28;20115;-59
2024/02/03 00:33:00;;;;;;;58.45;55.42;;;;;;;;;;5034010;28;20088;-60
2024/02/03 00:35:25;;;;;;;57.65;54.55;;;;;;;;;;5035568;28;20028;-60
2024/02/03 00:37:50;;;;;;;53.50;50.80;;;;;;;;;;5032738;28;20025;-60
2024/02/03 00:40:16;;;;;;;60.20;57.13;;;;;;;;;;5031766;28;20041;-60
2024/02/03 00:42:42;;;;;;;62.67;59.38;;;;;;;;;;5018463;28;20033;-60
2024/02/03 00:45:08;;;;;;;59.90;56.75;;;;;;;;;;5031513;28;20043;-60
2024/02/03 00:47:34;;;;;;;60.42;57.33;;;;;;;;;;5016118;28;20359;-60
2024/02/03 00:49:59;;;;;;;63.28;59.95;;;;;;;;;;5032285;28;20025;-60
2024/02/03 00:52:26;;;;;;;59.58;56.53;;;;;;;;;;5034044;28;20102;-60
2024/02/03 00:54:51;;;;;;;60.75;57.53;;;;;;;;;;5032084;28;20036;-60
2024/02/03 00:57:17;;;;;;;60.92;57.83;;;;;;;;;;5034899;28;20033;-60
2024/02/03 00:59:43;;;;;;;63.95;60.63;;;;;;;;;;5034596;28;20037;-60
2024/02/03 01:02:08;;;;;;;60.58;57.47;;;;;;;;;;5032503;28;20037;-60
2024/02/03 01:04:34;;;;;;;62.60;59.42;;;;;;;;;;5031221;28;20047;-60
2024/02/03 01:07:01;;;;;;;60.83;57.78;;;;;;;;;;5033808;28;20060;-60
2024/02/03 01:09:27;;;;;;;61.47;58.30;;;;;;;;;;5032002;28;20036;-59
2024/02/03 01:11:53;;;;;;;63.22;60.03;;;;;;;;;;5035536;28;20032;-60
2024/02/03 01:14:19;;;;;;;63.58;60.28;;;;;;;;;;5035189;28;20033;-60
2024/02/03 01:16:44;;;;;;;64.10;60.80;;;;;;;;;;5031877;28;20048;-59
2024/02/03 01:19:10;;;;;;;62.55;59.28;;;;;;;;;;5030363;28;20041;-59
2024/02/03 01:21:35;;;;;;;64.32;61.05;;;;;;;;;;5032756;28;20034;-60
2024/02/03 01:24:01;;;;;;;63.78;60.42;;;;;;;;;;5030500;28;20125;-60
2024/02/03 01:26:26;;;;;;;64.00;60.72;;;;;;;;;;5030572;28;20049;-60
2024/02/03 01:28:51;;;;;;;68.65;65.15;;;;;;;;;;5035299;28;20025;-60
2024/02/03 01:31:17;;;;;;;67.85;64.35;;;;;;;;;;5032639;28;20474;-60
2024/02/03 01:33:42;;;;;;;65.32;61.75;;;;;;;;;;5033295;28;20521;-60
2024/02/03 01:36:08;;;;;;;67.70;64.28;;;;;;;;;;5013497;28;20037;-60
2024/02/03 01:38:33;;;;;;;65.47;62.17;;;;;;;;;;5031891;28;20028;-59
2024/02/03 01:40:59;;;;;;;67.03;63.53;;;;;;;;;;5033125;28;20152;-60
2024/02/03 01:43:24;;;;;;;67.40;64.00;;;;;;;;;;5034553;28;20074;-60
2024/02/03 01:45:50;;;;;;;66.32;62.95;;;;;;;;;;5034626;28;20045;-60
2024/02/03 01:48:15;;;;;;;69.30;65.80;;;;;;;;;;5034200;28;20052;-60
2024/02/03 01:50:48;;;;;;;62.90;59.70;;;;;;;;;;5031856;28;20040;-59
2024/02/03 01:53:16;;;;;;;68.53;65.05;;;;;;;;;;5033260;28;20033;-60
2024/02/03 01:55:42;;;;;;;67.35;63.90;;;;;;;;;;5033647;28;20048;-60
2024/02/03 01:58:07;;;;;;;69.22;65.47;;;;;;;;;;5032068;28;20678;-60
2024/02/03 02:00:33;;;;;;;67.90;64.50;;;;;;;;;;5028391;28;20032;-60
2024/02/03 02:02:58;;;;;;;68.68;65.07;;;;;;;;;;5033083;28;20056;-59
2024/02/03 02:05:24;;;;;;;70.78;67.18;;;;;;;;;;5031643;28;20533;-61
2024/02/03 02:07:49;;;;;;;68.00;64.60;;;;;;;;;;5031231;28;20041;-60
2024/02/03 02:10:15;;;;;;;71.47;67.78;;;;;;;;;;5029832;28;20040;-60
2024/02/03 02:12:40;;;;;;;66.13;62.83;;;;;;;;;;5033331;28;20044;-60
2024/02/03 02:15:06;;;;;;;63.30;60.10;;;;;;;;;;5029863;28;20036;-60
2024/02/03 02:17:32;;;;;;;69.32;65.82;;;;;;;;;;5033553;28;20705;-60
2024/02/03 02:20:03;;;;;;;68.00;64.55;;;;;;;;;;5032081;28;20041;-60
2024/02/03 02:22:28;;;;;;;;;;;;;;;;;;5032414;28;20060;-59
2024/02/03 02:24:54;;;;;;;63.72;60.28;;;;;;;;;;5030370;28;20278;-60
2024/02/03 02:27:19;;;;;;;70.47;66.88;;;;;;;;;;5028410;28;20033;-60
2024/02/03 02:29:44;;;;;;;70.40;66.80;;;;;;;;;;5029945;28;20087;-60
2024/02/03 02:32:10;;;;;;;72.50;68.80;;;;;;;;;;5029343;28;20040;-60
2024/02/03 02:34:35;;;;;;;73.18;69.47;;;;;;;;;;5031097;28;20403;-59
2024/02/03 02:37:00;;;;;;;71.80;68.13;;;;;;;;;;5033538;28;20524;-60
2024/02/03 02:39:26;;;;;;;76.93;73.03;;;;;;;;;;5030546;28;20045;-60
2024/02/03 02:41:51;;;;;;;76.97;73.13;;;;;;;;;;5033072;28;20498;-60
2024/02/03 02:44:16;;;;;;;73.63;69.93;;;;;;;;;;5027429;28;20037;-60
2024/02/03 02:46:42;;;;;;;72.65;69.00;;;;;;;;;;5031464;28;20040;-60
2024/02/03 02:49:08;;;;;;;75.93;72.13;;;;;;;;;;5014942;28;20068;-60
2024/02/03 02:51:33;;;;;;;81.20;77.15;;;;;;;;;;5031472;28;20026;-60
2024/02/03 02:53:58;;;;;;;79.25;75.20;;;;;;;;;;5030236;28;20040;-60
2024/02/03 02:56:24;;;;;;;78.22;74.22;;;;;;;;;;5035230;28;20037;-60
2024/02/03 02:58:49;;;;;;;76.93;73.07;;;;;;;;;;5036820;28;20036;-60
2024/02/03 03:01:17;;;;;;;71.75;68.15;;;;;;;;;;5030830;28;20033;-60
2024/02/03 03:03:42;;;;;;;76.03;72.18;;;;;;;;;;5032971;28;20462;-60
2024/02/03 03:06:07;;;;;;;73.80;70.07;;;;;;;;;;5032556;28;20071;-60
2024/02/03 03:08:33;;;;;;;73.72;69.95;;;;;;;;;;5036185;28;20035;-60
2024/02/03 03:10:58;;;;;;;75.10;71.30;;;;;;;;;;5037226;28;20128;-60
2024/02/03 03:13:23;;;;;;;81.18;77.07;;;;;;;;;;5036647;28;20069;-60
2024/02/03 03:15:49;;;;;;;77.95;74.05;;;;;;;;;;5032079;28;20037;-60
2024/02/03 03:18:14;;;;;;;74.47;70.72;;;;;;;;;;5033834;28;20038;-60
2024/02/03 03:20:41;;;;;;;77.75;73.80;;;;;;;;;;5034975;28;20124;-60
2024/02/03 03:23:07;;;;;;;77.55;73.63;;;;;;;;;;5033513;28;20037;-60
2024/02/03 03:25:32;;;;;;;75.55;71.75;;;;;;;;;;5035516;28;20099;-60
2024/02/03 03:27:58;;;;;;;77.70;73.78;;;;;;;;;;5033128;28;20037;-61
2024/02/03 03:30:23;;;;;;;83.07;78.80;;;;;;;;;;5032881;28;20041;-60
2024/02/03 03:32:49;;;;;;;75.28;71.40;;;;;;;;;;5033930;28;20120;-61
2024/02/03 03:35:14;;;;;;;68.78;65.32;;;;;;;;;;5032491;28;20730;-60
2024/02/03 03:37:40;;;;;;;69.72;66.15;;;;;;;;;;5035061;28;20114;-60
2024/02/03 03:40:05;;;;;;;72.57;68.88;;;;;;;;;;5032407;28;20040;-60
2024/02/03 03:42:31;;;;;;;69.72;66.18;;;;;;;;;;5035545;28;20039;-60
2024/02/03 03:44:56;;;;;;;68.18;64.72;;;;;;;;;;5029991;28;20037;-60
2024/02/03 03:47:22;;;;;;;60.35;57.30;;;;;;;;;;5031591;28;20114;-60
2024/02/03 03:49:48;;;;;;;64.65;61.35;;;;;;;;;;5032155;28;20545;-60
2024/02/03 03:52:13;;;;;;;73.13;69.32;;;;;;;;;;5033091;28;20029;-60
2024/02/03 03:54:38;;;;;;;72.82;69.15;;;;;;;;;;5032829;28;20529;-59
2024/02/03 03:57:04;;;;;;;76.97;73.05;;;;;;;;;;5032948;28;20584;-59
2024/02/03 03:59:29;;;;;;;68.90;65.45;;;;;;;;;;5032832;28;20493;-59
2024/02/03 04:01:55;;;;;;;70.70;67.00;;;;;;;;;;5016401;28;20375;-60
2024/02/03 04:04:20;;;;;;;78.78;74.80;;;;;;;;;;5034921;28;20031;-59
2024/02/03 04:06:45;;;;;;;84.95;80.68;;;;;;;;;;5031005;28;20152;-60
2024/02/03 04:09:13;;;;;;;94.35;89.40;;;;;;;;;;5034061;28;20044;-60
2024/02/03 04:11:39;;;;;;;90.15;85.63;;;;;;;;;;5033798;28;20037;-60
2024/02/03 04:14:04;;;;;;;92.63;87.95;;;;;;;;;;5029006;28;20053;-60
2024/02/03 04:16:30;;;;;;;97.22;92.32;;;;;;;;;;5031561;28;20036;-59
2024/02/03 04:18:55;;;;;;;104.38;99.15;;;;;;;;;;5031651;28;20448;-60
2024/02/03 04:21:20;;;;;;;112.45;106.78;;;;;;;;;;5029659;28;20092;-60
2024/02/03 04:23:46;;;;;;;115.72;109.90;;;;;;;;;;5034315;28;20032;-60
2024/02/03 04:26:11;;;;;;;123.30;117.05;;;;;;;;;;5012673;28;20036;-60
2024/02/03 04:28:36;;;;;;;136.35;129.43;;;;;;;;;;5014055;28;20068;-60
2024/02/03 04:31:05;;;;;;;142.88;135.73;;;;;;;;;;5033692;28;20473;-60
2024/02/03 04:33:31;;;;;;;154.20;146.45;;;;;;;;;;5032276;28;20048;-60
2024/02/03 04:35:56;;;;;;;161.93;153.70;;;;;;;;;;5031715;28;20033;-60
2024/02/03 04:38:21;;;;;;;155.60;147.82;;;;;;;;;;5033769;28;20118;-60
2024/02/03 04:40:47;;;;;;;165.48;157.18;;;;;;;;;;5032904;28;20039;-60
2024/02/03 04:43:12;;;;;;;171.98;163.38;;;;;;;;;;5030300;28;20032;-59
2024/02/03 04:45:37;;;;;;;177.15;168.30;;;;;;;;;;5036342;28;20533;-60
2024/02/03 04:48:03;;;;;;;183.90;174.68;;;;;;;;;;5030363;28;20040;-60
2024/02/03 04:50:28;;;;;;;173.60;164.93;;;;;;;;;;5033025;28;20033;-60
2024/02/03 04:52:54;;;;;;;199.00;189.05;;;;;;;;;;5031198;28;20052;-60
2024/02/03 04:55:21;;;;;;;186.32;176.95;;;;;;;;;;5032428;28;20040;-61
2024/02/03 04:57:46;;;;;;;182.45;173.30;;;;;;;;;;5030817;28;20036;-60
2024/02/03 05:00:13;;;;;;;189.70;180.05;;;;;;;;;;5031746;28;20048;-60
2024/02/03 05:02:39;;;;;;;192.75;183.13;;;;;;;;;;5033829;28;20044;-60
2024/02/03 05:05:05;;;;;;;201.98;191.95;;;;;;;;;;5033232;28;20033;-60
2024/02/03 05:07:31;;;;;;;199.25;189.30;;;;;;;;;;5032418;28;20124;-60
2024/02/03 05:09:57;;;;;;;200.77;190.82;;;;;;;;;;5032770;28;20149;-60
2024/02/03 05:12:22;;;;;;;202.68;192.60;;;;;;;;;;5032518;28;20501;-60
2024/02/03 05:14:47;;;;;;;182.10;173.00;;;;;;;;;;5030304;28;20114;-62
2024/02/03 05:17:13;;;;;;;195.63;185.93;;;;;;;;;;5031999;28;20040;-60
2024/02/03 05:19:39;;;;;;;195.98;186.23;;;;;;;;;;5032695;28;20044;-60
2024/02/03 05:22:04;;;;;;;193.35;183.68;;;;;;;;;;5030285;28;20662;-61
2024/02/03 05:24:29;;;;;;;191.45;181.93;;;;;;;;;;5032559;28;20051;-60
2024/02/03 05:26:55;;;;;;;191.18;181.60;;;;;;;;;;5032808;28;20049;-60
2024/02/03 05:29:20;;;;;;;204.52;194.43;;;;;;;;;;5026457;28;20037;-60
2024/02/03 05:31:45;;;;;;;182.13;173.05;;;;;;;;;;5032927;28;20038;-60
2024/02/03 05:34:11;;;;;;;192.05;182.48;;;;;;;;;;5030066;28;20033;-60
2024/02/03 05:36:37;;;;;;;201.90;191.90;;;;;;;;;;5031624;28;20174;-60
2024/02/03 05:39:03;;;;;;;209.90;199.55;;;;;;;;;;5030845;28;20135;-60
2024/02/03 05:41:28;;;;;;;195.10;185.43;;;;;;;;;;5030595;28;20036;-60
2024/02/03 05:43:54;;;;;;;193.07;183.38;;;;;;;;;;5033004;28;20041;-60
2024/02/03 05:46:19;;;;;;;193.75;184.10;;;;;;;;;;5030333;28;20053;-60
2024/02/03 05:48:44;;;;;;;190.95;181.45;;;;;;;;;;5034773;28;20033;-60
2024/02/03 05:51:11;;;;;;;200.82;190.88;;;;;;;;;;5032395;28;20048;-60
2024/02/03 05:53:36;;;;;;;201.35;191.35;;;;;;;;;;5034119;28;20124;-60
2024/02/03 05:56:03;;;;;;;189.45;180.05;;;;;;;;;;5030740;28;20124;-61
2024/02/03 05:58:28;;;;;;;183.30;174.15;;;;;;;;;;5028905;28;20037;-60
2024/02/03 06:00:56;;;;;;;194.38;184.73;;;;;;;;;;5031462;28;20037;-61
2024/02/03 06:03:23;;;;;;;192.52;182.98;;;;;;;;;;5031878;28;20148;-60
2024/02/03 06:05:49;;;;;;;196.80;187.05;;;;;;;;;;5034258;28;20029;-61
2024/02/03 06:08:14;;;;;;;203.45;193.40;;;;;;;;;;5033002;28;20044;-61
2024/02/03 06:10:39;;;;;;;201.77;191.82;;;;;;;;;;5028389;28;20029;-60
2024/02/03 06:13:05;;;;;;;209.27;198.98;;;;;;;;;;5028373;28;20041;-60
2024/02/03 06:15:31;;;;;;;205.88;195.73;;;;;;;;;;5028248;28;20029;-60
2024/02/03 06:17:56;;;;;;;195.70;186.02;;;;;;;;;;5032348;28;20037;-60
2024/02/03 06:20:22;;;;;;;197.27;187.52;;;;;;;;;;5035016;28;20079;-60
2024/02/03 06:22:47;;;;;;;194.75;185.05;;;;;;;;;;5030648;28;20112;-60
2024/02/03 06:25:12;;;;;;;194.27;184.65;;;;;;;;;;5031663;28;20531;-61
2024/02/03 06:27:38;;;;;;;195.55;185.80;;;;;;;;;;5038702;28;20636;-60
2024/02/03 06:30:03;;;;;;;186.02;176.75;;;;;;;;;;5036138;28;20096;-60
2024/02/03 06:32:29;;;;;;;190.52;181.07;;;;;;;;;;5035426;28;20186;-60
2024/02/03 06:34:54;;;;;;;187.48;178.15;;;;;;;;;;5034543;28;20039;-60
2024/02/03 06:37:19;;;;;;;187.32;178.07;;;;;;;;;;5032295;28;20041;-60
2024/02/03 06:39:45;;;;;;;187.18;177.95;;;;;;;;;;5035966;28;20124;-61
2024/02/03 06:42:10;;;;;;;180.20;171.25;;;;;;;;;;5034494;28;20056;-60
2024/02/03 06:44:36;;;;;;;182.60;173.52;;;;;;;;;;5034328;28;20507;-60
2024/02/03 06:47:01;;;;;;;182.55;173.48;;;;;;;;;;5032656;28;20891;-60
2024/02/03 06:49:26;;;;;;;186.75;177.50;;;;;;;;;;5034533;28;20060;-60
2024/02/03 06:51:52;;;;;;;187.98;178.60;;;;;;;;;;5032510;28;20064;-60
2024/02/03 06:54:18;;;;;;;188.68;179.32;;;;;;;;;;5034799;28;20048;-60
2024/02/03 06:56:43;;;;;;;190.15;180.65;;;;;;;;;;5033001;28;20033;-60
2024/02/03 06:59:08;;;;;;;186.48;177.25;;;;;;;;;;5031872;28;20029;-60
2024/02/03 07:01:33;;;;;;;193.05;183.52;;;;;;;;;;5032568;28;20044;-60
2024/02/03 07:03:59;;;;;;;186.43;177.18;;;;;;;;;;5033394;28;20048;-60
2024/02/03 07:06:24;;;;;;;196.90;187.05;;;;;;;;;;5035364;28;20044;-59
2024/02/03 07:08:49;;;;;;;191.48;181.98;;;;;;;;;;5032527;28;20415;-59
2024/02/03 07:11:15;;;;;;;195.38;185.68;;;;;;;;;;5035506;28;20363;-60
2024/02/03 07:13:41;;;;;;;196.52;186.80;;;;;;;;;;5012801;28;20037;-60
2024/02/03 07:16:08;;;;;;;193.65;184.10;;;;;;;;;;5033217;28;20029;-60
2024/02/03 07:18:33;;;;;;;192.85;183.27;;;;;;;;;;5035235;28;20041;-59
2024/02/03 07:20:59;;;;;;;198.05;188.18;;;;;;;;;;5034049;28;20049;-60
2024/02/03 07:23:24;;;;;;;192.98;183.40;;;;;;;;;;5030722;28;20044;-60
2024/02/03 07:25:50;;;;;;;202.23;192.20;;;;;;;;;;5032830;28;20530;-60
2024/02/03 07:28:15;;;;;;;191.23;181.75;;;;;;;;;;5033595;28;20040;-60
2024/02/03 07:30:40;;;;;;;202.40;192.30;;;;;;;;;;5036575;28;20478;-60
2024/02/03 07:33:07;;;;;;;199.82;189.68;;;;;;;;;;5035422;28;20120;-59
2024/02/03 07:35:33;;;;;;;202.30;192.38;;;;;;;;;;5033075;28;20036;-60
2024/02/03 07:37:59;;;;;;;195.13;185.43;;;;;;;;;;5034345;28;20056;-60
2024/02/03 07:40:24;;;;;;;201.02;191.13;;;;;;;;;;5033449;28;20448;-60
2024/02/03 07:42:49;;;;;;;188.27;178.93;;;;;;;;;;5032499;28;20033;-60
2024/02/03 07:45:15;;;;;;;173.80;165.15;;;;;;;;;;5033304;28;20041;-60
2024/02/03 07:47:40;;;;;;;194.93;185.25;;;;;;;;;;5035827;28;20036;-59
2024/02/03 07:50:06;;;;;;;188.45;179.10;;;;;;;;;;5035842;28;20033;-59
2024/02/03 07:52:32;;;;;;;204.98;194.80;;;;;;;;;;5028889;28;20037;-60
2024/02/03 07:54:57;;;;;;;181.52;172.50;;;;;;;;;;5034412;28;20045;-60
2024/02/03 07:57:22;;;;;;;186.68;177.45;;;;;;;;;;5030016;28;20091;-60
2024/02/03 07:59:48;;;;;;;176.25;167.50;;;;;;;;;;5033522;28;20386;-60
2024/02/03 08:02:13;;;;;;;168.10;159.77;;;;;;;;;;5034455;28;20057;-59
2024/02/03 08:04:38;;;;;;;173.93;165.30;;;;;;;;;;5035592;28;20033;-60
2024/02/03 08:07:04;;;;;;;159.82;151.80;;;;;;;;;;5033682;28;20115;-60
2024/02/03 08:09:29;;;;;;;146.82;139.50;;;;;;;;;;5030686;28;20063;-60
2024/02/03 08:11:56;;;;;;;151.35;143.80;;;;;;;;;;5031361;28;20029;-60
2024/02/03 08:14:21;;;;;;;138.00;131.10;;;;;;;;;;5031818;28;20112;-60
2024/02/03 08:16:46;;;;;;;133.98;127.30;;;;;;;;;;5031473;28;20171;-60
2024/02/03 08:19:12;;;;;;;123.45;117.30;;;;;;;;;;5032802;28;20136;-60
2024/02/03 08:21:38;;;;;;;121.35;115.30;;;;;;;;;;5024301;28;20041;-60
2024/02/03 08:24:03;;;;;;;114.35;108.65;;;;;;;;;;5029549;28;20382;-60
2024/02/03 08:26:29;;;;;;;102.38;97.28;;;;;;;;;;5029982;28;20171;-60
2024/02/03 08:28:54;;;;;;;98.28;93.40;;;;;;;;;;5030263;28;20367;-60
2024/02/03 08:31:19;;;;;;;93.15;88.53;;;;;;;;;;5031255;28;20052;-61
2024/02/03 08:33:45;;;;;;;86.05;81.78;;;;;;;;;;5033054;28;20045;-61
2024/02/03 08:36:10;;;;;;;79.57;75.60;;;;;;;;;;5033730;28;20076;-60
2024/02/03 08:38:36;;;;;;;76.50;72.63;;;;;;;;;;5037827;28;20033;-60
2024/02/03 08:41:03;;;;;;;72.85;69.18;;;;;;;;;;5036576;28;20080;-60
2024/02/03 08:43:28;;;;;;;74.60;70.88;;;;;;;;;;5031198;28;20025;-60
2024/02/03 08:45:54;;;;;;;67.00;63.60;;;;;;;;;;5028030;28;20044;-60
2024/02/03 08:48:19;;;;;;;61.33;58.25;;;;;;;;;;5031551;28;20032;-60
2024/02/03 08:50:44;;;;;;;60.05;57.03;;;;;;;;;;5035074;28;20033;-60
2024/02/03 08:53:10;;;;;;;60.25;57.20;;;;;;;;;;5033063;28;20033;-60
2024/02/03 08:55:35;;;;;;;58.05;55.10;;;;;;;;;;5032129;28;20128;-60
2024/02/03 08:58:00;;;;;;;55.00;52.22;;;;;;;;;;5029993;28;20167;-60
2024/02/03 09:00:26;;;;;;;50.90;48.33;;;;;;;;;;5036929;28;20083;-60
2024/02/03 09:02:51;;;;;;;51.38;48.72;;;;;;;;;;5033823;28;20136;-60
2024/02/03 09:05:16;;;;;;;55.00;52.22;;;;;;;;;;5036220;28;20049;-61
2024/02/03 09:07:43;;;;;;;51.13;48.53;;;;;;;;;;5033351;28;20048;-60
2024/02/03 09:10:08;;;;;;;50.85;48.25;;;;;;;;;;5033023;28;20083;-60
2024/02/03 09:12:34;;;;;;;48.92;46.45;;;;;;;;;;5031259;28;20418;-60
2024/02/03 09:14:59;;;;;;;52.25;49.58;;;;;;;;;;5034279;28;20481;-60
2024/02/03 09:17:24;;;;;;;41.42;39.33;;;;;;;;;;5032852;28;20076;-60
2024/02/03 09:19:50;;;;;;;43.10;40.90;;;;;;;;;;5035023;28;20922;-60
2024/02/03 09:22:15;;;;;;;39.75;37.65;;;;;;;;;;5033429;28;20029;-60
2024/02/03 09:24:41;;;;;;;38.10;36.10;;;;;;;;;;5031720;28;20114;-61
2024/02/03 09:27:07;;;;;;;38.35;36.38;;;;;;;;;;5031923;28;20041;-60
2024/02/03 09:29:32;;;;;;;38.58;36.58;;;;;;;;;;5031762;28;20025;-60
2024/02/03 09:31:58;;;;;;;38.33;36.33;;;;;;;;;;5033198;28;20037;-61
2024/02/03 09:34:23;;;;;;;37.90;35.97;;;;;;;;;;5033943;28;20364;-60
2024/02/03 09:36:49;;;;;;;39.65;37.63;;;;;;;;;;5033121;28;20089;-61
2024/02/03 09:39:14;;;;;;;36.13;34.28;;;;;;;;;;5031446;28;20037;-60
2024/02/03 09:41:40;;;;;;;33.75;32.00;;;;;;;;;;5031119;28;20087;-58
2024/02/03 09:44:06;;;;;;;34.40;32.60;;;;;;;;;;5030327;28;20076;-58
2024/02/03 09:46:31;;;;;;;33.75;32.00;;;;;;;;;;5031338;28;20635;-58
2024/02/03 09:48:57;;;;;;;35.80;33.97;;;;;;;;;;5030542;28;20036;-61
2024/02/03 09:51:24;;;;;;;33.97;32.22;;;;;;;;;;5034937;28;20079;-61
2024/02/03 09:53:50;;;;;;;36.20;34.35;;;;;;;;;;5032490;28;20463;-60
2024/02/03 09:56:15;;;;;;;33.03;31.33;;;;;;;;;;5030886;28;20040;-61
2024/02/03 09:58:40;;;;;;;33.17;31.45;;;;;;;;;;5031679;28;20060;-60
2024/02/03 10:01:06;;;;;;;34.42;32.65;;;;;;;;;;5034572;28;20029;-61
2024/02/03 10:03:32;;;;;;;34.92;33.13;;;;;;;;;;5036831;28;20033;-61
2024/02/03 10:05:59;;;;;;;32.95;31.23;;;;;;;;;;5035885;28;20155;-61
2024/02/03 10:08:25;;;;;;;29.50;27.95;;;;;;;;;;5034679;28;20543;-61
2024/02/03 10:10:55;;;;;;;32.75;31.08;;;;;;;;;;5036274;28;20057;-60
2024/02/03 10:13:22;;;;;;;33.38;31.67;;;;;;;;;;5028376;28;20056;-60
2024/02/03 10:15:59;;;;;;;35.90;33.95;;;;;;;;;;5037595;28;20045;-61
2024/02/03 10:18:24;;;;;;;34.00;32.22;;;;;;;;;;5036403;28;20043;-61
2024/02/03 10:20:49;;;;;;;34.42;32.65;;;;;;;;;;5038316;28;20415;-61
2024/02/03 10:23:15;;;;;;;30.85;29.25;;;;;;;;;;5034694;28;20040;-61
2024/02/03 10:25:40;;;;;;;31.73;30.08;;;;;;;;;;5035866;28;20048;-61
2024/02/03 10:28:06;;;;;;;33.05;31.38;;;;;;;;;;5035285;28;20083;-60
2024/02/03 10:30:33;;;;;;;32.15;30.48;;;;;;;;;;5036011;28;20498;-61
2024/02/03 10:33:00;;;;;;;32.70;31.02;;;;;;;;;;5034534;28;20078;-61
2024/02/03 10:35:30;;;;;;;32.22;30.55;;;;;;;;;;5032876;28;20037;-61
2024/02/03 10:37:56;;;;;;;29.80;28.25;;;;;;;;;;5036994;28;20120;-61
2024/02/03 10:40:31;;;;;;;30.80;29.20;;;;;;;;;;5039342;28;20034;-61
2024/02/03 10:42:56;;;;;;;32.17;30.50;;;;;;;;;;5034771;28;20117;-61
2024/02/03 10:45:31;;;;;;;34.35;32.50;;;;;;;;;;5037537;28;20442;-61
2024/02/03 10:48:01;;;;;;;35.05;32.80;;;;;;;;;;5034764;28;20467;-61
2024/02/03 10:50:33;;;;;;;31.17;29.52;;;;;;;;;;5034280;28;20111;-61
2024/02/03 10:53:05;;;;;;;32.97;31.27;;;;;;;;;;5035009;28;20049;-61
2024/02/03 10:55:34;;;;;;;31.70;30.08;;;;;;;;;;5037144;28;20060;-61
2024/02/03 10:58:02;;;;;;;34.65;32.85;;;;;;;;;;5036368;28;20080;-61
2024/02/03 11:00:28;;;;;;;35.13;33.33;;;;;;;;;;5034780;28;20737;-58
2024/02/03 11:02:58;;;;;;;36.78;34.88;;;;;;;;;;5032526;28;20034;-61
2024/02/03 11:05:27;;;;;;;37.67;35.67;;;;;;;;;;5034371;28;20067;-61
2024/02/03 11:07:53;;;;;;;39.33;37.33;;;;;;;;;;5029622;28;20041;-61
2024/02/03 11:10:26;;;;;;;42.63;40.42;;;;;;;;;;5031315;28;20112;-59
2024/02/03 11:12:51;;;;;;;42.97;40.78;;;;;;;;;;5033477;28;20029;-58
2024/02/03 11:15:17;;;;;;;40.75;38.65;;;;;;;;;;5028584;28;20044;-60
2024/02/03 11:17:43;;;;;;;43.33;41.13;;;;;;;;;;5025375;28;20056;-61
2024/02/03 11:20:22;;;;;;;42.63;40.42;;;;;;;;;;5030896;28;20047;-61
2024/02/03 11:22:52;;;;;;;41.33;39.22;;;;;;;;;;5030097;28;20041;-58
2024/02/03 11:25:18;;;;;;;42.40;40.25;;;;;;;;;;5030857;28;20037;-59
2024/02/03 11:27:46;;;;;;;41.08;38.97;;;;;;;;;;5028953;28;20366;-59
2024/02/03 11:30:12;;;;;;;42.45;40.28;;;;;;;;;;5030754;28;20040;-59
2024/02/03 11:32:38;;;;;;;42.60;40.42;;;;;;;;;;5031137;28;20494;-59
2024/02/03 11:35:05;;;;;;;41.95;39.78;;;;;;;;;;5032589;28;20037;-58
2024/02/03 11:37:30;;;;;;;45.15;42.85;;;;;;;;;;5033937;28;20033;-58
2024/02/03 11:40:05;;;;;;;46.00;43.70;;;;;;;;;;5033269;28;20470;-58
2024/02/03 11:42:31;;;;;;;48.17;45.78;;;;;;;;;;5031566;28;20453;-58
2024/02/03 11:44:57;;;;;;;46.25;43.95;;;;;;;;;;5034337;28;20148;-60
2024/02/03 11:47:23;;;;;;;48.60;46.10;;;;;;;;;;5035008;28;20433;-59
2024/02/03 11:49:52;;;;;;;53.35;50.65;;;;;;;;;;5035030;28;20056;-59
2024/02/03 11:52:18;;;;;;;54.28;51.47;;;;;;;;;;5032459;28;20037;-59
2024/02/03 11:54:43;;;;;;;50.03;47.53;;;;;;;;;;5035248;28;20052;-59
2024/02/03 11:57:09;;;;;;;53.47;50.78;;;;;;;;;;5033112;28;20079;-58
2024/02/03 11:59:36;;;;;;;52.88;50.25;;;;;;;;;;5034717;28;20033;-59
2024/02/03 12:02:03;;;;;;;52.50;49.80;;;;;;;;;;5033048;28;20048;-61
2024/02/03 12:04:29;;;;;;;50.42;47.88;;;;;;;;;;5033896;28;20037;-60
2024/02/03 12:06:58;;;;;;;52.83;50.13;;;;;;;;;;5033690;28;20029;-59
2024/02/03 12:09:23;;;;;;;55.15;52.35;;;;;;;;;;5032761;28;20030;-59
2024/02/03 12:11:50;;;;;;;52.63;50.00;;;;;;;;;;5034330;28;21065;-59
2024/02/03 12:14:17;;;;;;;53.75;51.05;;;;;;;;;;5033286;28;20422;-61
2024/02/03 12:16:45;;;;;;;51.40;48.80;;;;;;;;;;5030418;28;20037;-59
2024/02/03 12:19:11;;;;;;;50.30;47.75;;;;;;;;;;5032489;28;20095;-59
2024/02/03 12:21:37;;;;;;;51.38;48.78;;;;;;;;;;5028614;28;20523;-59
2024/02/03 12:24:02;;;;;;;52.65;50.03;;;;;;;;;;5028259;28;20065;-59
2024/02/03 12:26:28;;;;;;;52.30;49.67;;;;;;;;;;5028335;28;20414;-59
2024/02/03 12:28:53;;;;;;;50.03;47.53;;;;;;;;;;5030930;28;20025;-59
2024/02/03 12:31:19;;;;;;;47.67;45.28;;;;;;;;;;5032341;28;20435;-60
2024/02/03 12:33:44;;;;;;;52.42;49.83;;;;;;;;;;5031477;28;20064;-59
2024/02/03 12:36:10;;;;;;;48.00;45.58;;;;;;;;;;5030833;28;20148;-59
2024/02/03 12:38:37;;;;;;;51.25;48.65;;;;;;;;;;5030806;28;20048;-60
2024/02/03 12:41:02;;;;;;;48.40;46.00;;;;;;;;;;5030448;28;20052;-59
2024/02/03 12:43:27;;;;;;;50.78;48.17;;;;;;;;;;5030253;28;20033;-59
2024/02/03 12:45:53;;;;;;;47.90;45.50;;;;;;;;;;5030198;28;20033;-59
2024/02/03 12:48:18;;;;;;;49.72;47.22;;;;;;;;;;5030714;28;20742;-59
2024/02/03 12:50:43;;;;;;;49.42;46.92;;;;;;;;;;5027830;28;20047;-59
2024/02/03 12:53:11;;;;;;;49.10;46.60;;;;;;;;;;5031097;28;20277;-59
2024/02/03 12:55:36;;;;;;;53.05;50.25;;;;;;;;;;5030594;28;20029;-59
2024/02/03 12:58:02;;;;;;;49.33;46.83;;;;;;;;;;5028911;28;20034;-59
2024/02/03 13:00:27;;;;;;;46.78;44.38;;;;;;;;;;5040384;28;20044;-59
2024/02/03 13:02:56;;;;;;;47.90;45.50;;;;;;;;;;5030600;28;20049;-60
2024/02/03 13:05:22;;;;;;;47.85;45.42;;;;;;;;;;5026644;28;20368;-60
2024/02/03 13:07:48;;;;;;;45.47;43.17;;;;;;;;;;5028239;28;20054;-60
2024/02/03 13:10:13;;;;;;;46.47;44.13;;;;;;;;;;5029191;28;20032;-60
2024/02/03 13:12:42;;;;;;;47.05;43.03;;;;;;;;;;5028488;28;20037;-60
2024/02/03 13:15:08;;;;;;;45.97;43.67;;;;;;;;;;5024303;28;20033;-60
2024/02/03 13:17:34;;;;;;;46.13;43.83;;;;;;;;;;5030794;28;20044;-60
2024/02/03 13:19:59;;;;;;;42.03;39.90;;;;;;;;;;5028570;28;20033;-59
2024/02/03 13:22:24;;;;;;;41.58;39.47;;;;;;;;;;5032439;28;20029;-60
2024/02/03 13:24:50;;;;;;;41.20;39.10;;;;;;;;;;5033962;28;20041;-60
2024/02/03 13:27:16;;;;;;;37.63;35.63;;;;;;;;;;5032529;28;20040;-59
2024/02/03 13:29:42;;;;;;;40.33;38.25;;;;;;;;;;5031249;28;20379;-60
2024/02/03 13:32:08;;;;;;;36.28;34.38;;;;;;;;;;5034950;28;20041;-59
2024/02/03 13:34:33;;;;;;;39.00;36.95;;;;;;;;;;5030373;28;20438;-61
2024/02/03 13:36:59;;;;;;;42.08;39.97;;;;;;;;;;5010417;28;20041;-60
2024/02/03 13:39:25;;;;;;;37.13;35.22;;;;;;;;;;5030650;28;20129;-59
2024/02/03 13:41:50;;;;;;;42.30;40.15;;;;;;;;;;5030810;28;20111;-59
2024/02/03 13:44:15;;;;;;;37.67;35.78;;;;;;;;;;5032522;28;20095;-60
2024/02/03 13:46:41;;;;;;;36.95;34.95;;;;;;;;;;5029286;28;20106;-60
2024/02/03 13:49:06;;;;;;;34.38;32.63;;;;;;;;;;5030449;28;20624;-60
2024/02/03 13:51:34;;;;;;;38.53;36.53;;;;;;;;;;5030399;28;20037;-59
2024/02/03 13:54:01;;;;;;;32.90;31.20;;;;;;;;;;5031823;28;20076;-59
2024/02/03 13:56:27;;;;;;;37.63;35.65;;;;;;;;;;5030065;28;20051;-59
2024/02/03 13:58:52;;;;;;;35.97;34.15;;;;;;;;;;5024473;28;20029;-59
2024/02/03 14:01:19;;;;;;;39.47;37.47;;;;;;;;;;5032915;28;20087;-60
2024/02/03 14:03:45;;;;;;;35.70;33.88;;;;;;;;;;5029832;28;20036;-59